sensor_id;sensor_type;location;lat;lon;timestamp;P1;durP1;ratioP1;P2;durP2;ratioP2
5167;SDS011;2603;48.918;8.980;2022-10-10T00:01:18;9.10;;;5.40;;
5167;SDS011;2603;48.918;8.980;2022-10-10T00:03:45;13.07;;;6.60;;
5167;SDS011;2603;48.918;8.980;2022-10-10T00:06:13;10.10;;;5.87;;
5167;SDS011;2603;48.918;8.980;2022-10-10T00:08:39;12.67;;;5.03;;
5167;SDS011;2603;48.918;8.980;2022-10-10T00:11:06;8.90;;;4.33;;
5167;SDS011;2603;48.918;8.980;2022-10-10T00:13:33;10.70;;;5.20;;
5167;SDS011;2603;48.918;8.980;2022-10-10T00:16:01;12.60;;;5.97;;
5167;SDS011;2603;48.918;8.980;2022-10-10T00:18:28;12.03;;;5.00;;
5167;SDS011;2603;48.918;8.980;2022-10-10T00:20:55;14.33;;;5.77;;
5167;SDS011;2603;48.918;8.980;2022-10-10T00:23:23;7.23;;;4.43;;
5167;SDS011;2603;48.918;8.980;2022-10-10T00:25:49;19.10;;;5.33;;
5167;SDS011;2603;48.918;8.980;2022-10-10T00:28:16;12.70;;;5.60;;
5167;SDS011;2603;48.918;8.980;2022-10-10T00:30:43;15.30;;;5.00;;
5167;SDS011;2603;48.918;8.980;2022-10-10T00:33:11;11.10;;;5.63;;
5167;SDS011;2603;48.918;8.980;2022-10-10T00:35:38;9.00;;;5.00;;
5167;SDS011;2603;48.918;8.980;2022-10-10T00:38:04;13.73;;;5.07;;
5167;SDS011;2603;48.918;8.980;2022-10-10T00:40:31;8.47;;;4.70;;
5167;SDS011;2603;48.918;8.980;2022-10-10T00:42:58;11.20;;;5.20;;
5167;SDS011;2603;48.918;8.980;2022-10-10T00:45:27;9.37;;;5.67;;
5167;SDS011;2603;48.918;8.980;2022-10-10T00:47:57;10.00;;;5.30;;
5167;SDS011;2603;48.918;8.980;2022-10-10T00:50:27;8.63;;;4.97;;
5167;SDS011;2603;48.918;8.980;2022-10-10T00:52:55;8.20;;;4.60;;
5167;SDS011;2603;48.918;8.980;2022-10-10T00:55:21;9.50;;;4.80;;
5167;SDS011;2603;48.918;8.980;2022-10-10T00:57:48;7.43;;;4.73;;
5167;SDS011;2603;48.918;8.980;2022-10-10T01:00:15;11.30;;;5.23;;
5167;SDS011;2603;48.918;8.980;2022-10-10T01:02:43;11.30;;;5.13;;
5167;SDS011;2603;48.918;8.980;2022-10-10T01:05:09;10.70;;;4.47;;
5167;SDS011;2603;48.918;8.980;2022-10-10T01:07:37;15.13;;;4.97;;
5167;SDS011;2603;48.918;8.980;2022-10-10T01:10:05;7.63;;;5.13;;
5167;SDS011;2603;48.918;8.980;2022-10-10T01:12:37;24.97;;;5.57;;
5167;SDS011;2603;48.918;8.980;2022-10-10T01:15:12;9.33;;;5.33;;
5167;SDS011;2603;48.918;8.980;2022-10-10T01:17:44;8.40;;;4.80;;
5167;SDS011;2603;48.918;8.980;2022-10-10T01:20:25;10.23;;;5.50;;
5167;SDS011;2603;48.918;8.980;2022-10-10T01:23:23;7.47;;;4.60;;
5167;SDS011;2603;48.918;8.980;2022-10-10T01:26:05;10.90;;;5.70;;
5167;SDS011;2603;48.918;8.980;2022-10-10T01:28:42;11.53;;;4.83;;
5167;SDS011;2603;48.918;8.980;2022-10-10T01:31:11;9.80;;;4.50;;
5167;SDS011;2603;48.918;8.980;2022-10-10T01:33:51;10.93;;;4.70;;
5167;SDS011;2603;48.918;8.980;2022-10-10T01:36:21;10.07;;;6.23;;
5167;SDS011;2603;48.918;8.980;2022-10-10T01:38:54;9.83;;;4.90;;
5167;SDS011;2603;48.918;8.980;2022-10-10T01:41:25;8.27;;;4.47;;
5167;SDS011;2603;48.918;8.980;2022-10-10T01:43:57;6.70;;;3.83;;
5167;SDS011;2603;48.918;8.980;2022-10-10T01:46:24;8.77;;;5.00;;
5167;SDS011;2603;48.918;8.980;2022-10-10T01:48:52;8.50;;;4.90;;
5167;SDS011;2603;48.918;8.980;2022-10-10T01:51:25;9.60;;;4.47;;
5167;SDS011;2603;48.918;8.980;2022-10-10T01:53:59;14.20;;;5.30;;
5167;SDS011;2603;48.918;8.980;2022-10-10T01:56:33;7.60;;;4.80;;
5167;SDS011;2603;48.918;8.980;2022-10-10T01:59:09;11.83;;;5.30;;
5167;SDS011;2603;48.918;8.980;2022-10-10T02:01:44;6.80;;;4.50;;
5167;SDS011;2603;48.918;8.980;2022-10-10T02:04:14;6.80;;;4.80;;
5167;SDS011;2603;48.918;8.980;2022-10-10T02:06:46;11.10;;;5.77;;
5167;SDS011;2603;48.918;8.980;2022-10-10T02:09:19;8.30;;;4.57;;
5167;SDS011;2603;48.918;8.980;2022-10-10T02:11:47;8.37;;;5.40;;
5167;SDS011;2603;48.918;8.980;2022-10-10T02:14:16;9.67;;;5.10;;
5167;SDS011;2603;48.918;8.980;2022-10-10T02:16:46;9.90;;;5.53;;
5167;SDS011;2603;48.918;8.980;2022-10-10T02:19:15;16.17;;;5.87;;
5167;SDS011;2603;48.918;8.980;2022-10-10T02:21:43;10.80;;;5.33;;
5167;SDS011;2603;48.918;8.980;2022-10-10T02:24:10;8.43;;;5.00;;
5167;SDS011;2603;48.918;8.980;2022-10-10T02:26:38;9.30;;;5.10;;
5167;SDS011;2603;48.918;8.980;2022-10-10T02:29:08;12.77;;;4.90;;
5167;SDS011;2603;48.918;8.980;2022-10-10T02:31:38;17.90;;;4.50;;
5167;SDS011;2603;48.918;8.980;2022-10-10T02:34:08;7.20;;;5.10;;
5167;SDS011;2603;48.918;8.980;2022-10-10T02:36:37;6.67;;;3.93;;
5167;SDS011;2603;48.918;8.980;2022-10-10T02:39:04;12.40;;;4.70;;
5167;SDS011;2603;48.918;8.980;2022-10-10T02:41:32;8.33;;;3.97;;
5167;SDS011;2603;48.918;8.980;2022-10-10T02:43:59;8.90;;;4.57;;
5167;SDS011;2603;48.918;8.980;2022-10-10T02:46:26;7.47;;;4.17;;
5167;SDS011;2603;48.918;8.980;2022-10-10T02:48:54;7.60;;;4.03;;
5167;SDS011;2603;48.918;8.980;2022-10-10T02:51:20;12.33;;;5.00;;
5167;SDS011;2603;48.918;8.980;2022-10-10T02:53:47;7.20;;;4.40;;
5167;SDS011;2603;48.918;8.980;2022-10-10T02:56:14;7.87;;;4.50;;
5167;SDS011;2603;48.918;8.980;2022-10-10T02:58:40;7.63;;;4.60;;
5167;SDS011;2603;48.918;8.980;2022-10-10T03:01:07;11.87;;;4.90;;
5167;SDS011;2603;48.918;8.980;2022-10-10T03:03:34;9.70;;;5.23;;
5167;SDS011;2603;48.918;8.980;2022-10-10T03:06:02;8.93;;;4.40;;
5167;SDS011;2603;48.918;8.980;2022-10-10T03:08:29;10.10;;;5.10;;
5167;SDS011;2603;48.918;8.980;2022-10-10T03:10:56;8.43;;;4.90;;
5167;SDS011;2603;48.918;8.980;2022-10-10T03:13:25;8.33;;;4.30;;
5167;SDS011;2603;48.918;8.980;2022-10-10T03:15:52;12.42;;;5.32;;
5167;SDS011;2603;48.918;8.980;2022-10-10T03:18:19;15.07;;;5.73;;
5167;SDS011;2603;48.918;8.980;2022-10-10T03:20:48;12.53;;;5.00;;
5167;SDS011;2603;48.918;8.980;2022-10-10T03:23:17;10.33;;;5.70;;
5167;SDS011;2603;48.918;8.980;2022-10-10T03:25:48;11.57;;;5.73;;
5167;SDS011;2603;48.918;8.980;2022-10-10T03:28:23;9.83;;;5.33;;
5167;SDS011;2603;48.918;8.980;2022-10-10T03:30:52;10.33;;;5.40;;
5167;SDS011;2603;48.918;8.980;2022-10-10T03:33:18;11.30;;;4.37;;
5167;SDS011;2603;48.918;8.980;2022-10-10T03:35:46;10.97;;;5.00;;
5167;SDS011;2603;48.918;8.980;2022-10-10T03:38:12;12.53;;;5.70;;
5167;SDS011;2603;48.918;8.980;2022-10-10T03:40:41;16.57;;;5.23;;
5167;SDS011;2603;48.918;8.980;2022-10-10T03:43:09;9.73;;;4.70;;
5167;SDS011;2603;48.918;8.980;2022-10-10T03:45:36;10.80;;;5.17;;
5167;SDS011;2603;48.918;8.980;2022-10-10T03:48:03;10.97;;;5.30;;
5167;SDS011;2603;48.918;8.980;2022-10-10T03:50:30;13.03;;;7.43;;
5167;SDS011;2603;48.918;8.980;2022-10-10T03:52:57;14.03;;;5.53;;
5167;SDS011;2603;48.918;8.980;2022-10-10T03:55:23;10.27;;;4.60;;
5167;SDS011;2603;48.918;8.980;2022-10-10T03:57:53;7.00;;;4.70;;
5167;SDS011;2603;48.918;8.980;2022-10-10T04:00:20;18.83;;;5.67;;
5167;SDS011;2603;48.918;8.980;2022-10-10T04:02:47;9.00;;;5.40;;
5167;SDS011;2603;48.918;8.980;2022-10-10T04:05:14;8.90;;;5.10;;
5167;SDS011;2603;48.918;8.980;2022-10-10T04:07:41;8.17;;;4.70;;
5167;SDS011;2603;48.918;8.980;2022-10-10T04:10:07;8.17;;;4.63;;
5167;SDS011;2603;48.918;8.980;2022-10-10T04:12:34;8.63;;;4.90;;
5167;SDS011;2603;48.918;8.980;2022-10-10T04:15:03;10.47;;;5.10;;
5167;SDS011;2603;48.918;8.980;2022-10-10T04:17:30;9.03;;;4.57;;
5167;SDS011;2603;48.918;8.980;2022-10-10T04:19:57;7.23;;;4.57;;
5167;SDS011;2603;48.918;8.980;2022-10-10T04:22:23;8.43;;;4.70;;
5167;SDS011;2603;48.918;8.980;2022-10-10T04:24:50;7.20;;;4.70;;
5167;SDS011;2603;48.918;8.980;2022-10-10T04:27:16;8.77;;;4.80;;
5167;SDS011;2603;48.918;8.980;2022-10-10T04:29:43;10.00;;;4.83;;
5167;SDS011;2603;48.918;8.980;2022-10-10T04:32:11;8.43;;;4.93;;
5167;SDS011;2603;48.918;8.980;2022-10-10T04:34:38;8.50;;;4.93;;
5167;SDS011;2603;48.918;8.980;2022-10-10T04:37:04;8.20;;;5.00;;
5167;SDS011;2603;48.918;8.980;2022-10-10T04:39:31;7.97;;;4.23;;
5167;SDS011;2603;48.918;8.980;2022-10-10T04:41:58;7.47;;;5.10;;
5167;SDS011;2603;48.918;8.980;2022-10-10T04:44:25;10.00;;;5.13;;
5167;SDS011;2603;48.918;8.980;2022-10-10T04:46:51;8.50;;;4.80;;
5167;SDS011;2603;48.918;8.980;2022-10-10T04:49:19;13.10;;;5.20;;
5167;SDS011;2603;48.918;8.980;2022-10-10T04:51:46;8.60;;;5.33;;
5167;SDS011;2603;48.918;8.980;2022-10-10T04:54:13;8.43;;;4.80;;
5167;SDS011;2603;48.918;8.980;2022-10-10T04:56:39;9.50;;;6.10;;
5167;SDS011;2603;48.918;8.980;2022-10-10T04:59:06;23.03;;;6.87;;
5167;SDS011;2603;48.918;8.980;2022-10-10T05:01:33;9.40;;;6.10;;
5167;SDS011;2603;48.918;8.980;2022-10-10T05:04:00;10.47;;;6.67;;
5167;SDS011;2603;48.918;8.980;2022-10-10T05:06:28;10.73;;;5.37;;
5167;SDS011;2603;48.918;8.980;2022-10-10T05:08:55;7.63;;;4.97;;
5167;SDS011;2603;48.918;8.980;2022-10-10T05:11:22;8.27;;;5.50;;
5167;SDS011;2603;48.918;8.980;2022-10-10T05:13:48;11.47;;;5.60;;
5167;SDS011;2603;48.918;8.980;2022-10-10T05:16:15;10.53;;;5.47;;
5167;SDS011;2603;48.918;8.980;2022-10-10T05:18:42;6.70;;;4.30;;
5167;SDS011;2603;48.918;8.980;2022-10-10T05:21:09;8.30;;;4.93;;
5167;SDS011;2603;48.918;8.980;2022-10-10T05:23:37;9.03;;;5.03;;
5167;SDS011;2603;48.918;8.980;2022-10-10T05:26:05;10.20;;;4.93;;
5167;SDS011;2603;48.918;8.980;2022-10-10T05:28:32;12.23;;;4.37;;
5167;SDS011;2603;48.918;8.980;2022-10-10T05:31:00;11.77;;;5.70;;
5167;SDS011;2603;48.918;8.980;2022-10-10T05:33:27;11.30;;;5.77;;
5167;SDS011;2603;48.918;8.980;2022-10-10T05:35:59;10.37;;;5.70;;
5167;SDS011;2603;48.918;8.980;2022-10-10T05:38:27;13.53;;;6.20;;
5167;SDS011;2603;48.918;8.980;2022-10-10T05:40:55;16.43;;;5.90;;
5167;SDS011;2603;48.918;8.980;2022-10-10T05:43:22;11.10;;;5.60;;
5167;SDS011;2603;48.918;8.980;2022-10-10T05:45:48;7.50;;;4.70;;
5167;SDS011;2603;48.918;8.980;2022-10-10T05:48:15;11.30;;;5.83;;
5167;SDS011;2603;48.918;8.980;2022-10-10T05:50:45;16.83;;;5.97;;
5167;SDS011;2603;48.918;8.980;2022-10-10T05:53:13;12.03;;;5.90;;
5167;SDS011;2603;48.918;8.980;2022-10-10T05:55:39;10.67;;;5.83;;
5167;SDS011;2603;48.918;8.980;2022-10-10T05:58:07;9.30;;;5.60;;
5167;SDS011;2603;48.918;8.980;2022-10-10T06:00:34;13.30;;;6.80;;
5167;SDS011;2603;48.918;8.980;2022-10-10T06:03:00;13.60;;;6.90;;
5167;SDS011;2603;48.918;8.980;2022-10-10T06:05:27;16.30;;;7.17;;
5167;SDS011;2603;48.918;8.980;2022-10-10T06:07:54;8.33;;;6.57;;
5167;SDS011;2603;48.918;8.980;2022-10-10T06:10:20;11.03;;;7.50;;
5167;SDS011;2603;48.918;8.980;2022-10-10T06:12:47;16.80;;;7.40;;
5167;SDS011;2603;48.918;8.980;2022-10-10T06:15:15;9.73;;;6.23;;
5167;SDS011;2603;48.918;8.980;2022-10-10T06:17:42;21.23;;;7.83;;
5167;SDS011;2603;48.918;8.980;2022-10-10T06:20:08;12.97;;;7.33;;
5167;SDS011;2603;48.918;8.980;2022-10-10T06:22:35;22.30;;;7.00;;
5167;SDS011;2603;48.918;8.980;2022-10-10T06:25:02;20.93;;;7.83;;
5167;SDS011;2603;48.918;8.980;2022-10-10T06:27:28;10.93;;;7.70;;
5167;SDS011;2603;48.918;8.980;2022-10-10T06:29:55;11.87;;;6.83;;
5167;SDS011;2603;48.918;8.980;2022-10-10T06:32:23;13.80;;;7.57;;
5167;SDS011;2603;48.918;8.980;2022-10-10T06:34:49;25.83;;;7.60;;
5167;SDS011;2603;48.918;8.980;2022-10-10T06:37:16;16.67;;;7.57;;
5167;SDS011;2603;48.918;8.980;2022-10-10T06:39:43;15.83;;;7.03;;
5167;SDS011;2603;48.918;8.980;2022-10-10T06:42:09;14.60;;;7.60;;
5167;SDS011;2603;48.918;8.980;2022-10-10T06:44:36;15.20;;;6.53;;
5167;SDS011;2603;48.918;8.980;2022-10-10T06:47:03;17.43;;;6.53;;
5167;SDS011;2603;48.918;8.980;2022-10-10T06:49:31;10.70;;;6.97;;
5167;SDS011;2603;48.918;8.980;2022-10-10T06:51:58;12.87;;;6.60;;
5167;SDS011;2603;48.918;8.980;2022-10-10T06:54:24;11.87;;;7.30;;
5167;SDS011;2603;48.918;8.980;2022-10-10T06:56:51;14.17;;;6.40;;
5167;SDS011;2603;48.918;8.980;2022-10-10T06:59:18;16.40;;;7.20;;
5167;SDS011;2603;48.918;8.980;2022-10-10T07:01:44;31.73;;;16.10;;
5167;SDS011;2603;48.918;8.980;2022-10-10T07:04:11;14.10;;;7.10;;
5167;SDS011;2603;48.918;8.980;2022-10-10T07:06:39;15.90;;;7.63;;
5167;SDS011;2603;48.918;8.980;2022-10-10T07:09:06;11.20;;;5.60;;
5167;SDS011;2603;48.918;8.980;2022-10-10T07:11:32;11.97;;;5.50;;
5167;SDS011;2603;48.918;8.980;2022-10-10T07:14:00;11.83;;;6.30;;
5167;SDS011;2603;48.918;8.980;2022-10-10T07:16:27;11.80;;;6.70;;
5167;SDS011;2603;48.918;8.980;2022-10-10T07:18:54;13.57;;;6.87;;
5167;SDS011;2603;48.918;8.980;2022-10-10T07:21:20;12.83;;;6.67;;
5167;SDS011;2603;48.918;8.980;2022-10-10T07:23:48;5.40;;;4.33;;
5167;SDS011;2603;48.918;8.980;2022-10-10T07:26:15;10.90;;;6.83;;
5167;SDS011;2603;48.918;8.980;2022-10-10T07:28:45;11.03;;;7.07;;
5167;SDS011;2603;48.918;8.980;2022-10-10T07:31:11;10.73;;;6.10;;
5167;SDS011;2603;48.918;8.980;2022-10-10T07:33:39;9.43;;;5.40;;
5167;SDS011;2603;48.918;8.980;2022-10-10T07:36:07;8.57;;;5.60;;
5167;SDS011;2603;48.918;8.980;2022-10-10T07:38:34;7.87;;;5.37;;
5167;SDS011;2603;48.918;8.980;2022-10-10T07:41:04;12.47;;;4.93;;
5167;SDS011;2603;48.918;8.980;2022-10-10T07:43:31;21.57;;;5.80;;
5167;SDS011;2603;48.918;8.980;2022-10-10T07:45:58;10.90;;;5.60;;
5167;SDS011;2603;48.918;8.980;2022-10-10T07:48:24;12.93;;;6.20;;
5167;SDS011;2603;48.918;8.980;2022-10-10T07:50:51;12.03;;;6.10;;
5167;SDS011;2603;48.918;8.980;2022-10-10T07:53:18;10.70;;;6.50;;
5167;SDS011;2603;48.918;8.980;2022-10-10T07:55:45;22.83;;;8.53;;
5167;SDS011;2603;48.918;8.980;2022-10-10T07:58:13;22.33;;;8.33;;
5167;SDS011;2603;48.918;8.980;2022-10-10T08:00:39;23.40;;;6.70;;
5167;SDS011;2603;48.918;8.980;2022-10-10T08:03:06;13.53;;;6.93;;
5167;SDS011;2603;48.918;8.980;2022-10-10T08:05:33;21.93;;;10.30;;
5167;SDS011;2603;48.918;8.980;2022-10-10T08:08:04;14.33;;;7.20;;
5167;SDS011;2603;48.918;8.980;2022-10-10T08:10:31;13.23;;;6.40;;
5167;SDS011;2603;48.918;8.980;2022-10-10T08:12:57;12.10;;;6.77;;
5167;SDS011;2603;48.918;8.980;2022-10-10T08:15:25;12.57;;;6.30;;
5167;SDS011;2603;48.918;8.980;2022-10-10T08:17:52;21.20;;;6.90;;
5167;SDS011;2603;48.918;8.980;2022-10-10T08:20:19;8.97;;;5.57;;
5167;SDS011;2603;48.918;8.980;2022-10-10T08:22:45;9.17;;;5.10;;
5167;SDS011;2603;48.918;8.980;2022-10-10T08:25:12;10.93;;;5.70;;
5167;SDS011;2603;48.918;8.980;2022-10-10T08:27:38;13.63;;;5.90;;
5167;SDS011;2603;48.918;8.980;2022-10-10T08:30:05;12.20;;;5.90;;
5167;SDS011;2603;48.918;8.980;2022-10-10T08:32:34;9.87;;;5.23;;
5167;SDS011;2603;48.918;8.980;2022-10-10T08:35:00;13.53;;;5.60;;
5167;SDS011;2603;48.918;8.980;2022-10-10T08:37:27;9.80;;;6.20;;
5167;SDS011;2603;48.918;8.980;2022-10-10T08:39:54;15.83;;;4.90;;
5167;SDS011;2603;48.918;8.980;2022-10-10T08:42:23;13.47;;;6.00;;
5167;SDS011;2603;48.918;8.980;2022-10-10T08:44:52;11.47;;;5.87;;
5167;SDS011;2603;48.918;8.980;2022-10-10T08:47:21;10.50;;;5.00;;
5167;SDS011;2603;48.918;8.980;2022-10-10T08:49:52;10.40;;;5.43;;
5167;SDS011;2603;48.918;8.980;2022-10-10T08:52:22;8.83;;;6.10;;
5167;SDS011;2603;48.918;8.980;2022-10-10T08:54:53;9.77;;;6.00;;
5167;SDS011;2603;48.918;8.980;2022-10-10T08:57:22;14.00;;;5.17;;
5167;SDS011;2603;48.918;8.980;2022-10-10T08:59:50;10.40;;;5.30;;
5167;SDS011;2603;48.918;8.980;2022-10-10T09:02:27;9.30;;;4.73;;
5167;SDS011;2603;48.918;8.980;2022-10-10T09:04:57;9.27;;;5.47;;
5167;SDS011;2603;48.918;8.980;2022-10-10T09:07:26;13.67;;;5.87;;
5167;SDS011;2603;48.918;8.980;2022-10-10T09:10:02;16.50;;;6.80;;
5167;SDS011;2603;48.918;8.980;2022-10-10T09:12:37;8.07;;;4.53;;
5167;SDS011;2603;48.918;8.980;2022-10-10T09:15:10;7.00;;;4.10;;
5167;SDS011;2603;48.918;8.980;2022-10-10T09:17:40;9.60;;;4.53;;
5167;SDS011;2603;48.918;8.980;2022-10-10T09:20:24;16.90;;;5.00;;
5167;SDS011;2603;48.918;8.980;2022-10-10T09:22:57;8.40;;;5.10;;
5167;SDS011;2603;48.918;8.980;2022-10-10T09:25:28;13.83;;;5.70;;
5167;SDS011;2603;48.918;8.980;2022-10-10T09:27:58;13.37;;;5.53;;
5167;SDS011;2603;48.918;8.980;2022-10-10T09:30:28;18.73;;;5.60;;
5167;SDS011;2603;48.918;8.980;2022-10-10T09:32:57;16.50;;;5.03;;
5167;SDS011;2603;48.918;8.980;2022-10-10T09:35:29;8.27;;;5.47;;
5167;SDS011;2603;48.918;8.980;2022-10-10T09:38:00;12.40;;;5.13;;
5167;SDS011;2603;48.918;8.980;2022-10-10T09:40:31;12.53;;;5.57;;
5167;SDS011;2603;48.918;8.980;2022-10-10T09:43:01;7.90;;;4.77;;
5167;SDS011;2603;48.918;8.980;2022-10-10T09:45:37;5.73;;;4.10;;
5167;SDS011;2603;48.918;8.980;2022-10-10T09:48:07;20.77;;;4.60;;
5167;SDS011;2603;48.918;8.980;2022-10-10T09:50:36;12.77;;;4.77;;
5167;SDS011;2603;48.918;8.980;2022-10-10T09:53:02;8.60;;;4.20;;
5167;SDS011;2603;48.918;8.980;2022-10-10T09:55:30;5.10;;;3.83;;
5167;SDS011;2603;48.918;8.980;2022-10-10T09:58:00;7.63;;;3.60;;
5167;SDS011;2603;48.918;8.980;2022-10-10T10:00:33;8.47;;;4.70;;
5167;SDS011;2603;48.918;8.980;2022-10-10T10:03:07;15.00;;;4.50;;
5167;SDS011;2603;48.918;8.980;2022-10-10T10:05:38;8.53;;;3.70;;
5167;SDS011;2603;48.918;8.980;2022-10-10T10:08:15;9.17;;;4.30;;
5167;SDS011;2603;48.918;8.980;2022-10-10T10:10:43;14.10;;;4.57;;
5167;SDS011;2603;48.918;8.980;2022-10-10T10:13:11;10.60;;;3.87;;
5167;SDS011;2603;48.918;8.980;2022-10-10T10:15:39;19.43;;;4.33;;
5167;SDS011;2603;48.918;8.980;2022-10-10T10:18:19;19.00;;;3.77;;
5167;SDS011;2603;48.918;8.980;2022-10-10T10:20:50;14.40;;;4.80;;
5167;SDS011;2603;48.918;8.980;2022-10-10T10:23:21;12.67;;;4.50;;
5167;SDS011;2603;48.918;8.980;2022-10-10T10:25:55;14.97;;;4.67;;
5167;SDS011;2603;48.918;8.980;2022-10-10T10:28:23;10.43;;;3.93;;
5167;SDS011;2603;48.918;8.980;2022-10-10T10:30:51;6.73;;;3.23;;
5167;SDS011;2603;48.918;8.980;2022-10-10T10:33:22;8.63;;;3.90;;
5167;SDS011;2603;48.918;8.980;2022-10-10T10:36:03;10.73;;;3.50;;
5167;SDS011;2603;48.918;8.980;2022-10-10T10:38:38;17.93;;;3.80;;
5167;SDS011;2603;48.918;8.980;2022-10-10T10:41:09;5.80;;;3.30;;
5167;SDS011;2603;48.918;8.980;2022-10-10T10:46:31;11.60;;;3.50;;
5167;SDS011;2603;48.918;8.980;2022-10-10T10:49:07;10.40;;;3.47;;
5167;SDS011;2603;48.918;8.980;2022-10-10T10:51:47;7.80;;;3.70;;
5167;SDS011;2603;48.918;8.980;2022-10-10T10:54:28;7.13;;;3.43;;
5167;SDS011;2603;48.918;8.980;2022-10-10T10:57:03;11.10;;;3.13;;
5167;SDS011;2603;48.918;8.980;2022-10-10T10:59:35;9.53;;;2.97;;
5167;SDS011;2603;48.918;8.980;2022-10-10T11:02:15;14.17;;;3.20;;
5167;SDS011;2603;48.918;8.980;2022-10-10T11:04:54;15.53;;;3.60;;
5167;SDS011;2603;48.918;8.980;2022-10-10T11:07:28;8.30;;;3.47;;
5167;SDS011;2603;48.918;8.980;2022-10-10T11:10:00;12.13;;;3.27;;
5167;SDS011;2603;48.918;8.980;2022-10-10T11:12:36;9.73;;;3.07;;
5167;SDS011;2603;48.918;8.980;2022-10-10T11:15:12;5.33;;;2.70;;
5167;SDS011;2603;48.918;8.980;2022-10-10T11:17:42;9.13;;;3.80;;
5167;SDS011;2603;48.918;8.980;2022-10-10T11:20:14;19.47;;;4.10;;
5167;SDS011;2603;48.918;8.980;2022-10-10T11:22:46;6.03;;;3.30;;
5167;SDS011;2603;48.918;8.980;2022-10-10T11:25:17;10.07;;;3.57;;
5167;SDS011;2603;48.918;8.980;2022-10-10T11:27:49;6.60;;;3.00;;
5167;SDS011;2603;48.918;8.980;2022-10-10T11:30:19;13.33;;;2.80;;
5167;SDS011;2603;48.918;8.980;2022-10-10T11:32:49;5.47;;;2.90;;
5167;SDS011;2603;48.918;8.980;2022-10-10T11:35:23;4.70;;;2.17;;
5167;SDS011;2603;48.918;8.980;2022-10-10T11:37:56;8.60;;;3.07;;
5167;SDS011;2603;48.918;8.980;2022-10-10T11:40:31;7.30;;;3.07;;
5167;SDS011;2603;48.918;8.980;2022-10-10T11:43:01;4.33;;;2.40;;
5167;SDS011;2603;48.918;8.980;2022-10-10T11:45:32;9.90;;;2.80;;
5167;SDS011;2603;48.918;8.980;2022-10-10T11:48:02;12.80;;;2.60;;
5167;SDS011;2603;48.918;8.980;2022-10-10T11:50:37;9.00;;;2.50;;
5167;SDS011;2603;48.918;8.980;2022-10-10T11:53:10;7.53;;;2.57;;
5167;SDS011;2603;48.918;8.980;2022-10-10T11:55:41;5.53;;;3.23;;
5167;SDS011;2603;48.918;8.980;2022-10-10T12:00:56;6.70;;;2.07;;
5167;SDS011;2603;48.918;8.980;2022-10-10T12:03:23;4.97;;;2.70;;
5167;SDS011;2603;48.918;8.980;2022-10-10T12:05:52;8.07;;;2.57;;
5167;SDS011;2603;48.918;8.980;2022-10-10T12:08:22;7.77;;;2.23;;
5167;SDS011;2603;48.918;8.980;2022-10-10T12:10:51;5.90;;;2.87;;
5167;SDS011;2603;48.918;8.980;2022-10-10T12:13:24;8.13;;;2.30;;
5167;SDS011;2603;48.918;8.980;2022-10-10T12:15:54;9.60;;;2.80;;
5167;SDS011;2603;48.918;8.980;2022-10-10T12:18:23;7.33;;;2.13;;
5167;SDS011;2603;48.918;8.980;2022-10-10T12:21:01;13.93;;;2.80;;
5167;SDS011;2603;48.918;8.980;2022-10-10T12:23:31;10.50;;;2.40;;
5167;SDS011;2603;48.918;8.980;2022-10-10T12:25:58;6.53;;;2.83;;
5167;SDS011;2603;48.918;8.980;2022-10-10T12:28:26;36.83;;;4.20;;
5167;SDS011;2603;48.918;8.980;2022-10-10T12:37:20;17.37;;;2.53;;
5167;SDS011;2603;48.918;8.980;2022-10-10T12:43:01;8.00;;;2.20;;
5167;SDS011;2603;48.918;8.980;2022-10-10T12:48:58;5.23;;;2.40;;
5167;SDS011;2603;48.918;8.980;2022-10-10T12:51:39;11.80;;;2.43;;
5167;SDS011;2603;48.918;8.980;2022-10-10T12:54:06;8.43;;;2.27;;
5167;SDS011;2603;48.918;8.980;2022-10-10T12:56:37;12.50;;;2.87;;
5167;SDS011;2603;48.918;8.980;2022-10-10T12:59:12;9.43;;;2.63;;
5167;SDS011;2603;48.918;8.980;2022-10-10T13:01:43;9.17;;;3.03;;
5167;SDS011;2603;48.918;8.980;2022-10-10T13:04:13;14.47;;;3.27;;
5167;SDS011;2603;48.918;8.980;2022-10-10T13:06:41;5.47;;;2.17;;
5167;SDS011;2603;48.918;8.980;2022-10-10T13:09:09;9.23;;;2.50;;
5167;SDS011;2603;48.918;8.980;2022-10-10T13:11:54;13.57;;;2.80;;
5167;SDS011;2603;48.918;8.980;2022-10-10T13:14:24;13.30;;;2.27;;
5167;SDS011;2603;48.918;8.980;2022-10-10T13:16:51;7.70;;;2.27;;
5167;SDS011;2603;48.918;8.980;2022-10-10T13:19:19;13.73;;;2.53;;
5167;SDS011;2603;48.918;8.980;2022-10-10T13:21:47;15.87;;;3.10;;
5167;SDS011;2603;48.918;8.980;2022-10-10T13:24:16;14.00;;;3.50;;
5167;SDS011;2603;48.918;8.980;2022-10-10T13:26:44;7.40;;;1.97;;
5167;SDS011;2603;48.918;8.980;2022-10-10T13:31:58;9.27;;;3.03;;
5167;SDS011;2603;48.918;8.980;2022-10-10T13:34:28;10.93;;;2.13;;
5167;SDS011;2603;48.918;8.980;2022-10-10T13:36:57;15.07;;;2.50;;
5167;SDS011;2603;48.918;8.980;2022-10-10T13:39:25;14.40;;;2.53;;
5167;SDS011;2603;48.918;8.980;2022-10-10T13:41:52;13.73;;;2.80;;
5167;SDS011;2603;48.918;8.980;2022-10-10T13:44:21;10.10;;;2.07;;
5167;SDS011;2603;48.918;8.980;2022-10-10T13:46:49;10.60;;;2.70;;
5167;SDS011;2603;48.918;8.980;2022-10-10T13:49:20;19.60;;;2.87;;
5167;SDS011;2603;48.918;8.980;2022-10-10T13:51:49;15.60;;;2.60;;
5167;SDS011;2603;48.918;8.980;2022-10-10T13:54:36;7.40;;;2.00;;
5167;SDS011;2603;48.918;8.980;2022-10-10T13:57:04;13.50;;;2.43;;
5167;SDS011;2603;48.918;8.980;2022-10-10T13:59:35;18.57;;;2.97;;
5167;SDS011;2603;48.918;8.980;2022-10-10T14:02:07;17.43;;;2.77;;
5167;SDS011;2603;48.918;8.980;2022-10-10T14:04:38;16.10;;;3.43;;
5167;SDS011;2603;48.918;8.980;2022-10-10T14:07:10;11.30;;;2.70;;
5167;SDS011;2603;48.918;8.980;2022-10-10T14:09:38;12.43;;;3.37;;
5167;SDS011;2603;48.918;8.980;2022-10-10T14:12:07;16.00;;;2.93;;
5167;SDS011;2603;48.918;8.980;2022-10-10T14:14:43;10.13;;;2.60;;
5167;SDS011;2603;48.918;8.980;2022-10-10T14:17:13;11.87;;;2.60;;
5167;SDS011;2603;48.918;8.980;2022-10-10T14:19:40;6.93;;;2.60;;
5167;SDS011;2603;48.918;8.980;2022-10-10T14:22:07;12.27;;;2.43;;
5167;SDS011;2603;48.918;8.980;2022-10-10T14:24:33;8.27;;;3.00;;
5167;SDS011;2603;48.918;8.980;2022-10-10T14:27:04;8.33;;;2.47;;
5167;SDS011;2603;48.918;8.980;2022-10-10T14:29:32;14.07;;;2.90;;
5167;SDS011;2603;48.918;8.980;2022-10-10T14:31:59;9.07;;;2.43;;
5167;SDS011;2603;48.918;8.980;2022-10-10T14:34:27;8.60;;;2.67;;
5167;SDS011;2603;48.918;8.980;2022-10-10T14:36:53;15.33;;;2.73;;
5167;SDS011;2603;48.918;8.980;2022-10-10T14:39:20;14.43;;;3.20;;
5167;SDS011;2603;48.918;8.980;2022-10-10T14:41:47;12.60;;;2.70;;
5167;SDS011;2603;48.918;8.980;2022-10-10T14:44:13;13.27;;;3.07;;
5167;SDS011;2603;48.918;8.980;2022-10-10T14:46:40;18.87;;;3.20;;
5167;SDS011;2603;48.918;8.980;2022-10-10T14:49:08;27.97;;;4.27;;
5167;SDS011;2603;48.918;8.980;2022-10-10T14:51:42;22.33;;;3.47;;
5167;SDS011;2603;48.918;8.980;2022-10-10T14:54:09;7.80;;;2.67;;
5167;SDS011;2603;48.918;8.980;2022-10-10T14:56:36;24.90;;;3.80;;
5167;SDS011;2603;48.918;8.980;2022-10-10T14:59:08;13.23;;;2.97;;
5167;SDS011;2603;48.918;8.980;2022-10-10T15:01:41;13.87;;;2.60;;
5167;SDS011;2603;48.918;8.980;2022-10-10T15:04:08;18.60;;;2.73;;
5167;SDS011;2603;48.918;8.980;2022-10-10T15:06:34;20.50;;;3.50;;
5167;SDS011;2603;48.918;8.980;2022-10-10T15:09:02;9.40;;;2.80;;
5167;SDS011;2603;48.918;8.980;2022-10-10T15:11:29;10.40;;;1.93;;
5167;SDS011;2603;48.918;8.980;2022-10-10T15:13:56;15.03;;;3.20;;
5167;SDS011;2603;48.918;8.980;2022-10-10T15:16:23;14.90;;;2.50;;
5167;SDS011;2603;48.918;8.980;2022-10-10T15:18:49;10.23;;;2.63;;
5167;SDS011;2603;48.918;8.980;2022-10-10T15:21:16;18.67;;;3.23;;
5167;SDS011;2603;48.918;8.980;2022-10-10T15:23:43;11.77;;;2.60;;
5167;SDS011;2603;48.918;8.980;2022-10-10T15:26:11;22.47;;;3.03;;
5167;SDS011;2603;48.918;8.980;2022-10-10T15:28:37;11.13;;;1.90;;
5167;SDS011;2603;48.918;8.980;2022-10-10T15:31:04;8.43;;;1.93;;
5167;SDS011;2603;48.918;8.980;2022-10-10T15:33:31;13.67;;;3.40;;
5167;SDS011;2603;48.918;8.980;2022-10-10T15:35:58;10.27;;;3.00;;
5167;SDS011;2603;48.918;8.980;2022-10-10T15:38:25;19.90;;;2.37;;
5167;SDS011;2603;48.918;8.980;2022-10-10T15:40:55;9.90;;;2.57;;